Impacts TAF Board
For situational awareness. Not to be used for flight planning purposes.
IDs:

KGCK - Garden City Rgnl, KS, US

Issued at 1732 UTC 02 Aug 2021
Updated at 2145 UTC 02 Aug 2021
Potential Impact None Slight Moderate High
Time2054Z 02/22Z 02/23Z 03/00Z 03/01Z 03/02Z 03/03Z 03/04Z 03/05Z 03/06Z 03/07Z 03/08Z 03/09Z 03/10Z>>
Type OBS PRVL PRVL PRVL PRVL PRVL PRVL PRVL PRVL PRVL PRVL PRVL PRVL PRVL
VIS 9 6 6 6 6 6 6 6 6 6 6 6 6 6
CIG -- -- -- -- -- -- -- -- -- -- -- -- -- --
Cover SCT FEW FEW FEW FEW FEW FEW FEW FEW FEW FEW FEW FEW FEW
FltCat VFR VFR VFR VFR VFR VFR VFR VFR VFR VFR VFR VFR VFR VFR
WX -- FU BR FU BR FU BR FU BR FU BR FU BR FU BR FU BR FU BR FU BR FU BR FU BR FU BR
WDir VRB 180 180 180 180 180 180 180 180 180 180 180 180 180
WSpd 5 5 5 5 5 5 5 5 5 5 5 5 5 5
WGst -- -- -- -- -- -- -- -- -- -- -- -- -- --
Raw TAF
KGCK 021732Z 0218/0318 18005KT 6SM FU BR FEW250

Raw METAR
KGCK 022054Z VRB05KT 9SM FEW070 SCT085 28/12 A3018 RMK AO2 SLP189 T02780117 57020
KGCK 021954Z VRB06G15KT 9SM BKN065 28/12 A3020 RMK AO2 SLP196 T02780122
KGCK 021854Z 27006KT 8SM FEW060 27/13 A3022 RMK AO2 SLP203 T02720128

METAR Board
Radar Display
Forecast Discussion
For situational awareness. Not to be used for flight planning purposes.